Terminal Aerodrome Forecast
Issued by NWS

Home | Current Version | Previous Version | Text Only | Print | Product List | Glossary On
Versions: 1 2 3 4 5 6 7 8 9 10 11 12 13 14 15 16 17 18 19
000
FTUS44 KLZK 040531
TAFPBF
TAF
KPBF 040531Z 0406/0506 00000KT P6SM SCT250
      TEMPO 0409/0413 5SM BR
     FM041500 15006KT P6SM SCT050
     FM050000 12003KT P6SM SCT250=

USA.gov is the U.S. government's official web portal to all federal, state and local government web resources and services.